createdAt,value
2019-02-02T00:00:39.505Z,300.03
2019-02-02T00:03:08.285Z,281.83
2019-02-02T00:05:36.983Z,264.70
2019-02-02T00:08:06.458Z,251.80
2019-02-02T00:10:35.190Z,266.50
2019-02-02T00:13:03.938Z,220.37
2019-02-02T00:15:32.680Z,227.27
2019-02-02T00:18:01.314Z,256.83
2019-02-02T00:20:30.077Z,252.47
2019-02-02T00:22:58.716Z,259.57
2019-02-02T00:25:31.650Z,250.93
2019-02-02T00:28:00.289Z,240.57
2019-02-02T00:30:28.910Z,251.73
2019-02-02T00:32:57.758Z,222.20
2019-02-02T00:35:26.434Z,221.57
2019-02-02T00:37:55.110Z,229.83
2019-02-02T00:40:23.741Z,241.33
2019-02-02T00:42:52.429Z,239.33
2019-02-02T00:45:22.278Z,269.70
2019-02-02T00:47:51.263Z,257.93
2019-02-02T00:50:21.218Z,251.63
2019-02-02T00:52:49.807Z,249.07
2019-02-02T00:55:19.464Z,262.77
2019-02-02T00:57:53.458Z,250.27
2019-02-02T01:00:28.943Z,248.20
2019-02-02T01:02:57.584Z,279.10
2019-02-02T01:05:30.119Z,294.67
2019-02-02T01:07:58.802Z,301.83
2019-02-02T01:10:32.664Z,310.03
2019-02-02T01:13:01.327Z,367.13
2019-02-02T01:15:30.109Z,364.43
2019-02-02T01:17:58.897Z,369.00
2019-02-02T01:20:27.538Z,318.37
2019-02-02T01:22:56.175Z,309.40
2019-02-02T01:25:24.917Z,270.77
2019-02-02T01:28:04.527Z,249.47
2019-02-02T01:30:26.410Z,246.10
2019-02-02T01:32:55.070Z,230.57
2019-02-02T01:35:26.419Z,233.37
2019-02-02T01:37:55.107Z,225.70
2019-02-02T01:40:26.271Z,203.57
2019-02-02T01:42:55.104Z,200.90
2019-02-02T01:45:30.168Z,169.00
2019-02-02T01:47:59.101Z,176.07
2019-02-02T01:50:28.842Z,156.10
2019-02-02T01:52:57.579Z,158.33
2019-02-02T01:55:26.408Z,144.70
2019-02-02T01:57:55.031Z,149.87
2019-02-02T02:00:31.804Z,155.73
2019-02-02T02:03:00.466Z,164.90
2019-02-02T02:05:29.103Z,169.17
2019-02-02T02:08:03.562Z,176.60
2019-02-02T02:10:32.244Z,180.00
2019-02-02T02:13:00.881Z,202.10
2019-02-02T02:15:29.562Z,200.63
2019-02-02T02:17:58.251Z,212.37
2019-02-02T02:20:27.217Z,203.27
2019-02-02T02:22:55.855Z,209.07
2019-02-02T02:25:24.534Z,229.13
2019-02-02T02:27:53.273Z,214.37
2019-02-02T02:30:24.621Z,197.53
2019-02-02T02:32:57.927Z,188.97
2019-02-02T02:35:26.567Z,190.90
2019-02-02T02:37:58.006Z,179.23
2019-02-02T02:40:26.642Z,170.50
2019-02-02T02:42:55.322Z,159.73
2019-02-02T02:45:24.001Z,173.97
2019-02-02T02:47:52.634Z,184.50
2019-02-02T02:50:22.983Z,180.23
2019-02-02T02:52:51.652Z,203.03
2019-02-02T02:55:20.340Z,202.17
2019-02-02T02:57:48.968Z,197.27
2019-02-02T03:00:27.918Z,205.30
2019-02-02T03:02:56.536Z,193.03
2019-02-02T03:05:25.331Z,190.87
2019-02-02T03:07:54.901Z,211.27
2019-02-02T03:10:25.287Z,179.73
2019-02-02T03:12:54.222Z,207.23
2019-02-02T03:15:22.902Z,206.67
2019-02-02T03:17:52.827Z,188.23
2019-02-02T03:20:24.388Z,186.23
2019-02-02T03:22:52.966Z,178.00
2019-02-02T03:25:24.298Z,196.13
2019-02-02T03:27:52.931Z,198.47
2019-02-02T03:30:22.502Z,220.07
2019-02-02T03:32:51.251Z,208.33
2019-02-02T03:35:22.735Z,197.40
2019-02-02T03:37:51.570Z,192.90
2019-02-02T03:40:22.597Z,199.60
2019-02-02T03:42:51.228Z,213.93
2019-02-02T03:45:23.980Z,210.23
2019-02-02T03:47:53.835Z,219.37
2019-02-02T03:50:22.598Z,207.50
2019-02-02T03:52:51.251Z,204.67
2019-02-02T03:55:19.868Z,214.97
2019-02-02T03:57:48.640Z,212.80
2019-02-02T04:00:21.807Z,233.47
2019-02-02T04:02:50.490Z,252.43
2019-02-02T04:05:31.351Z,226.77
2019-02-02T04:08:00.027Z,231.37
2019-02-02T04:10:28.670Z,226.77
2019-02-02T04:12:57.348Z,222.87
2019-02-02T04:15:25.981Z,235.93
2019-02-02T04:17:54.658Z,223.80
2019-02-02T04:20:23.799Z,251.60
2019-02-02T04:22:52.536Z,237.50
2019-02-02T04:25:22.312Z,253.30
2019-02-02T04:27:51.450Z,240.07
2019-02-02T04:30:22.601Z,226.20
2019-02-02T04:32:51.237Z,222.83
2019-02-02T04:35:20.195Z,219.53
2019-02-02T04:37:48.916Z,208.03
2019-02-02T04:40:17.599Z,200.23
2019-02-02T04:42:46.332Z,219.77
2019-02-02T04:45:18.708Z,210.20
2019-02-02T04:47:47.452Z,200.83
2019-02-02T04:50:18.528Z,191.13
2019-02-02T04:52:47.203Z,214.63
2019-02-02T04:55:17.736Z,219.60
2019-02-02T04:57:46.419Z,214.03
2019-02-02T05:00:19.053Z,231.27
2019-02-02T05:02:47.737Z,216.73
2019-02-02T05:05:18.278Z,243.17
2019-02-02T05:07:47.102Z,238.93
2019-02-02T05:10:21.184Z,228.73
2019-02-02T05:12:50.010Z,255.90
2019-02-02T05:15:18.592Z,249.30
2019-02-02T05:17:47.297Z,240.73
2019-02-02T05:20:18.748Z,263.13
2019-02-02T05:22:50.170Z,326.83
2019-02-02T05:25:18.859Z,344.40
2019-02-02T05:27:47.492Z,308.70
2019-02-02T05:30:26.242Z,276.40
2019-02-02T05:32:54.877Z,305.47
2019-02-02T05:35:23.618Z,318.47
2019-02-02T05:37:52.261Z,290.90
2019-02-02T05:40:22.498Z,361.50
2019-02-02T05:42:52.104Z,354.83
2019-02-02T05:45:23.107Z,342.73
2019-02-02T05:47:51.678Z,342.47
2019-02-02T05:50:22.162Z,253.77
2019-02-02T05:52:55.232Z,133.37
2019-02-02T05:55:24.076Z,97.80
2019-02-02T05:57:54.385Z,108.23
2019-02-02T06:00:33.503Z,134.57
2019-02-02T06:03:02.146Z,192.50
2019-02-02T06:05:30.787Z,178.70
2019-02-02T06:07:59.462Z,202.33
2019-02-02T06:10:28.110Z,168.33
2019-02-02T06:12:56.751Z,177.90
2019-02-02T06:15:28.430Z,149.53
2019-02-02T06:17:55.839Z,146.97
2019-02-02T06:20:24.418Z,162.67
2019-02-02T06:22:53.157Z,143.50
2019-02-02T06:25:22.129Z,151.30
2019-02-02T06:27:53.723Z,126.17
2019-02-02T06:30:24.151Z,107.67
2019-02-02T06:32:52.848Z,113.93
2019-02-02T06:35:21.452Z,108.17
2019-02-02T06:37:50.053Z,106.27
2019-02-02T06:40:18.778Z,104.63
2019-02-02T06:42:47.466Z,110.93
2019-02-02T06:45:20.303Z,127.80
2019-02-02T06:47:48.944Z,120.73
2019-02-02T06:50:18.121Z,116.70
2019-02-02T06:52:50.926Z,111.33
2019-02-02T06:55:19.566Z,110.77
2019-02-02T06:57:48.188Z,91.90
2019-02-02T07:00:30.846Z,79.70
2019-02-02T07:02:59.487Z,83.13
2019-02-02T07:05:28.120Z,86.27
2019-02-02T07:07:56.769Z,65.27
2019-02-02T07:10:27.987Z,69.30
2019-02-02T07:12:56.823Z,74.10
2019-02-02T07:15:30.119Z,72.97
2019-02-02T07:17:58.798Z,63.97
2019-02-02T07:20:27.432Z,61.40
2019-02-02T07:22:56.061Z,62.33
2019-02-02T07:25:24.668Z,63.53
2019-02-02T07:27:53.353Z,62.20
2019-02-02T07:30:28.722Z,69.10
2019-02-02T07:32:54.536Z,70.07
2019-02-02T07:35:24.114Z,63.80
2019-02-02T07:37:52.842Z,70.03
2019-02-02T07:40:22.420Z,84.70
2019-02-02T07:42:51.145Z,64.60
2019-02-02T07:45:28.407Z,86.53
2019-02-02T07:47:57.134Z,74.83
2019-02-02T07:50:25.922Z,66.07
2019-02-02T07:52:54.566Z,54.07
2019-02-02T07:55:24.065Z,50.37
2019-02-02T07:57:52.743Z,53.60
2019-02-02T08:00:40.447Z,48.60
2019-02-02T08:03:01.723Z,54.30
2019-02-02T08:05:30.401Z,58.97
2019-02-02T08:07:59.071Z,48.70
2019-02-02T08:10:27.759Z,46.67
2019-02-02T08:12:56.386Z,45.97
2019-02-02T08:15:30.547Z,49.63
2019-02-02T08:17:59.168Z,41.73
2019-02-02T08:20:30.430Z,35.80
2019-02-02T08:22:59.104Z,40.83
2019-02-02T08:25:32.318Z,49.30
2019-02-02T08:28:01.009Z,48.13
2019-02-02T08:30:31.762Z,42.37
2019-02-02T08:33:00.444Z,231.50
2019-02-02T08:35:29.085Z,39.10
2019-02-02T08:37:57.794Z,38.10
2019-02-02T08:40:26.554Z,35.63
2019-02-02T08:42:55.184Z,38.93
2019-02-02T08:45:23.812Z,38.03
2019-02-02T08:47:52.455Z,40.50
2019-02-02T08:50:29.319Z,44.60
2019-02-02T08:52:57.924Z,35.23
2019-02-02T08:55:26.552Z,37.63
2019-02-02T08:57:55.195Z,31.03
2019-02-02T09:00:23.906Z,26.77
2019-02-02T09:02:52.580Z,23.97
2019-02-02T09:05:22.910Z,21.93
2019-02-02T09:07:51.547Z,24.87
2019-02-02T09:10:22.210Z,24.50
2019-02-02T09:12:50.885Z,22.50
2019-02-02T09:15:19.977Z,19.80
2019-02-02T09:17:48.814Z,20.53
2019-02-02T09:20:17.587Z,35.97
2019-02-02T09:22:47.024Z,25.13
2019-02-02T09:25:18.054Z,28.37
2019-02-02T09:27:46.701Z,31.63
2019-02-02T09:30:23.542Z,39.40
2019-02-02T09:32:52.210Z,34.93
2019-02-02T09:35:20.837Z,37.13
2019-02-02T09:37:49.531Z,37.47
2019-02-02T09:40:21.418Z,26.43
2019-02-02T09:42:50.088Z,30.33
2019-02-02T09:45:21.626Z,31.57
2019-02-02T09:47:50.561Z,34.70
2019-02-02T09:50:21.563Z,31.77
2019-02-02T09:52:50.227Z,32.57
2019-02-02T09:55:23.587Z,32.00
2019-02-02T09:57:55.038Z,28.70
2019-02-02T10:00:26.436Z,27.77
2019-02-02T10:02:55.165Z,29.07
2019-02-02T10:05:23.914Z,37.70
2019-02-02T10:07:52.464Z,42.27
2019-02-02T10:10:22.995Z,38.03
2019-02-02T10:12:51.674Z,25.60
2019-02-02T10:15:23.257Z,23.27
2019-02-02T10:17:51.922Z,19.23
2019-02-02T10:20:25.521Z,19.67
2019-02-02T10:22:54.958Z,19.27
2019-02-02T10:25:25.805Z,24.47
2019-02-02T10:27:54.624Z,21.13
2019-02-02T10:30:28.841Z,20.90
2019-02-02T10:32:57.516Z,18.97
2019-02-02T10:35:26.261Z,26.50
2019-02-02T10:37:54.980Z,20.93
2019-02-02T10:40:23.571Z,21.50
2019-02-02T10:42:52.242Z,17.93
2019-02-02T10:45:20.888Z,17.47
2019-02-02T10:47:55.200Z,16.10
2019-02-02T10:50:27.263Z,17.17
2019-02-02T10:52:55.945Z,17.93
2019-02-02T10:55:27.335Z,20.27
2019-02-02T10:57:56.023Z,16.63
2019-02-02T11:00:27.181Z,27.27
2019-02-02T11:02:55.967Z,22.37
2019-02-02T11:05:24.590Z,21.03
2019-02-02T11:07:54.550Z,21.57
2019-02-02T11:10:28.997Z,23.03
2019-02-02T11:12:57.745Z,20.77
2019-02-02T11:15:26.866Z,25.30
2019-02-02T11:17:55.520Z,25.27
2019-02-02T11:20:32.808Z,26.60
2019-02-02T11:23:01.638Z,21.20
2019-02-02T11:25:30.392Z,19.83
2019-02-02T11:28:02.115Z,19.77
2019-02-02T11:30:31.433Z,19.33
2019-02-02T11:33:00.066Z,22.23
2019-02-02T11:35:28.738Z,23.70
2019-02-02T11:37:57.372Z,22.07
2019-02-02T11:40:33.761Z,31.63
2019-02-02T11:43:02.482Z,23.20
2019-02-02T11:45:31.151Z,29.07
2019-02-02T11:47:59.854Z,30.63
2019-02-02T11:50:28.530Z,26.43
2019-02-02T11:52:57.241Z,24.80
2019-02-02T11:55:27.214Z,30.37
2019-02-02T11:57:56.020Z,28.57
2019-02-02T12:00:29.959Z,43.30
2019-02-02T12:02:58.546Z,24.50
2019-02-02T12:05:27.312Z,27.30
2019-02-02T12:07:59.145Z,30.03
2019-02-02T12:10:32.460Z,29.00
2019-02-02T12:13:07.080Z,30.07
2019-02-02T12:15:35.751Z,30.53
2019-02-02T12:18:05.086Z,29.37
2019-02-02T12:20:33.882Z,28.97
2019-02-02T12:23:02.444Z,29.97
2019-02-02T12:25:33.775Z,31.17
2019-02-02T12:28:02.403Z,40.93
2019-02-02T12:30:33.076Z,52.50
2019-02-02T12:33:03.147Z,43.00
2019-02-02T12:35:31.995Z,46.93
2019-02-02T12:38:00.751Z,42.47
2019-02-02T12:40:29.525Z,42.87
2019-02-02T12:42:58.162Z,47.23
2019-02-02T12:45:32.635Z,42.63
2019-02-02T12:48:01.241Z,44.20
2019-02-02T12:50:29.871Z,46.10
2019-02-02T12:52:58.654Z,34.90
2019-02-02T12:55:27.283Z,44.50
2019-02-02T12:57:55.920Z,39.53
2019-02-02T13:00:24.646Z,31.73
2019-02-02T13:02:53.351Z,42.87
2019-02-02T13:05:26.112Z,37.50
2019-02-02T13:07:54.752Z,40.83
2019-02-02T13:10:26.079Z,37.67
2019-02-02T13:12:54.992Z,41.57
2019-02-02T13:15:24.013Z,34.50
2019-02-02T13:17:52.669Z,35.57
2019-02-02T13:20:21.306Z,33.97
2019-02-02T13:22:49.991Z,36.97
2019-02-02T13:25:21.077Z,31.80
2019-02-02T13:27:49.750Z,33.67
2019-02-02T13:30:21.350Z,30.27
2019-02-02T13:32:50.350Z,33.93
2019-02-02T13:35:19.867Z,34.63
2019-02-02T13:37:48.486Z,46.50
2019-02-02T13:40:19.409Z,44.83
2019-02-02T13:42:48.077Z,41.63
2019-02-02T13:45:18.797Z,41.60
2019-02-02T13:47:47.477Z,45.53
2019-02-02T13:50:18.137Z,54.63
2019-02-02T13:52:50.699Z,39.80
2019-02-02T13:55:22.248Z,40.37
2019-02-02T13:57:50.871Z,36.00
2019-02-02T14:00:30.991Z,38.43
2019-02-02T14:03:03.355Z,39.13
2019-02-02T14:05:30.124Z,40.03
2019-02-02T14:08:00.281Z,39.47
2019-02-02T14:10:36.921Z,37.37
2019-02-02T14:13:05.537Z,39.77
2019-02-02T14:15:34.224Z,36.70
2019-02-02T14:18:02.933Z,36.20
2019-02-02T14:20:31.598Z,35.77
2019-02-02T14:23:00.306Z,36.70
2019-02-02T14:25:29.053Z,38.57
2019-02-02T14:27:57.762Z,45.43
2019-02-02T14:30:27.126Z,43.00
2019-02-02T14:32:55.799Z,40.07
2019-02-02T14:35:28.372Z,46.67
2019-02-02T14:37:57.082Z,53.27
2019-02-02T14:40:28.549Z,42.93
2019-02-02T14:42:57.360Z,44.43
2019-02-02T14:45:27.712Z,41.80
2019-02-02T14:47:56.727Z,36.50
2019-02-02T14:50:25.686Z,37.20
2019-02-02T14:52:54.877Z,41.30
2019-02-02T14:55:26.959Z,36.17
2019-02-02T14:57:55.684Z,37.67
2019-02-02T15:00:26.308Z,38.80
2019-02-02T15:02:55.287Z,35.47
2019-02-02T15:05:23.894Z,47.23
2019-02-02T15:07:53.220Z,40.47
2019-02-02T15:10:22.866Z,42.40
2019-02-02T15:12:51.524Z,43.40
2019-02-02T15:15:20.146Z,53.87
2019-02-02T15:17:51.796Z,46.57
2019-02-02T15:20:25.957Z,52.30
2019-02-02T15:22:54.762Z,68.10
2019-02-02T15:25:23.996Z,110.00
2019-02-02T15:27:55.400Z,59.00
2019-02-02T15:30:32.788Z,88.43
2019-02-02T15:33:01.606Z,110.80
2019-02-02T15:35:30.341Z,120.20
2019-02-02T15:38:02.143Z,113.10
2019-02-02T15:40:32.295Z,128.20
2019-02-02T15:43:04.249Z,208.40
2019-02-02T15:45:33.283Z,167.43
2019-02-02T15:48:01.960Z,211.63
2019-02-02T15:50:30.629Z,187.77
2019-02-02T15:52:59.190Z,203.77
2019-02-02T15:55:27.951Z,201.77
2019-02-02T15:57:56.709Z,157.23
2019-02-02T16:00:33.764Z,177.30
2019-02-02T16:03:05.232Z,232.80
2019-02-02T16:05:35.642Z,172.03
2019-02-02T16:08:07.360Z,219.53
2019-02-02T16:10:36.227Z,210.80
2019-02-02T16:13:05.236Z,223.97
2019-02-02T16:15:34.693Z,221.37
2019-02-02T16:18:03.457Z,162.37
2019-02-02T16:20:37.754Z,198.63
2019-02-02T16:23:09.420Z,160.90
2019-02-02T16:25:38.133Z,183.00
2019-02-02T16:28:07.011Z,154.87
2019-02-02T16:30:35.634Z,136.33
2019-02-02T16:33:04.463Z,123.37
2019-02-02T16:35:35.932Z,91.60
2019-02-02T16:38:04.696Z,98.37
2019-02-02T16:40:33.387Z,92.70
2019-02-02T16:43:02.811Z,91.07
2019-02-02T16:45:36.555Z,98.37
2019-02-02T16:48:05.851Z,95.67
2019-02-02T16:50:37.479Z,103.93
2019-02-02T16:53:11.943Z,106.20
2019-02-02T16:55:47.048Z,106.67
2019-02-02T16:58:15.732Z,124.13
2019-02-02T17:00:44.418Z,124.10
2019-02-02T17:03:12.975Z,157.03
2019-02-02T17:05:41.593Z,193.40
2019-02-02T17:08:10.521Z,189.80
2019-02-02T17:10:39.217Z,223.00
2019-02-02T17:13:08.106Z,256.80
2019-02-02T17:15:39.986Z,358.83
2019-02-02T17:18:09.398Z,400.93
2019-02-02T17:20:45.130Z,449.80
2019-02-02T17:23:13.686Z,514.27
2019-02-02T17:25:42.443Z,356.87
2019-02-02T17:28:11.176Z,477.10
2019-02-02T17:30:43.322Z,403.33
2019-02-02T17:33:13.797Z,417.63
2019-02-02T17:35:42.531Z,457.93
2019-02-02T17:38:11.230Z,509.43
2019-02-02T17:40:39.793Z,526.17
2019-02-02T17:43:08.477Z,524.20
2019-02-02T17:45:37.100Z,538.57
2019-02-02T17:48:13.100Z,487.80
2019-02-02T17:50:40.681Z,480.20
2019-02-02T17:53:10.178Z,494.87
2019-02-02T17:55:44.776Z,455.37
2019-02-02T17:58:16.462Z,470.90
2019-02-02T18:00:49.941Z,448.27
2019-02-02T18:03:18.742Z,463.23
2019-02-02T18:05:47.435Z,466.13
2019-02-02T18:08:15.976Z,449.13
2019-02-02T18:10:44.578Z,444.97
2019-02-02T18:13:19.020Z,581.23
2019-02-02T18:15:47.648Z,538.97
2019-02-02T18:18:16.278Z,444.97
2019-02-02T18:20:44.915Z,484.37
2019-02-02T18:23:18.323Z,478.50
2019-02-02T18:25:46.796Z,418.93
2019-02-02T18:28:15.408Z,416.87
2019-02-02T18:30:44.103Z,427.00
2019-02-02T18:33:12.760Z,391.77
2019-02-02T18:35:41.419Z,380.67
2019-02-02T18:38:10.114Z,389.97
2019-02-02T18:40:40.208Z,376.83
2019-02-02T18:43:10.125Z,201.17
2019-02-02T18:45:41.494Z,333.77
2019-02-02T18:48:10.124Z,274.93
2019-02-02T18:50:38.788Z,311.10
2019-02-02T18:53:07.461Z,279.07
2019-02-02T18:55:48.187Z,297.97
2019-02-02T18:58:16.870Z,259.60
2019-02-02T19:00:45.631Z,247.60
2019-02-02T19:03:14.320Z,276.40
2019-02-02T19:05:45.952Z,271.23
2019-02-02T19:08:14.631Z,265.87
2019-02-02T19:10:44.825Z,263.10
2019-02-02T19:13:13.476Z,244.40
2019-02-02T19:15:42.156Z,273.83
2019-02-02T19:18:11.469Z,248.10
2019-02-02T19:20:40.068Z,251.70
2019-02-02T19:23:08.750Z,277.13
2019-02-02T19:25:37.986Z,273.53
2019-02-02T19:28:06.921Z,288.07
2019-02-02T19:30:36.194Z,263.07
2019-02-02T19:33:05.626Z,286.87
2019-02-02T19:35:34.186Z,250.63
2019-02-02T19:38:02.842Z,251.27
2019-02-02T19:40:34.191Z,256.37
2019-02-02T19:43:05.722Z,257.13
2019-02-02T19:45:34.342Z,268.03
2019-02-02T19:48:03.011Z,254.50
2019-02-02T19:50:31.578Z,242.47
2019-02-02T19:53:00.349Z,206.80
2019-02-02T19:55:28.913Z,240.47
2019-02-02T19:58:00.328Z,250.00
2019-02-02T20:00:31.303Z,245.90
2019-02-02T20:03:00.164Z,269.63
2019-02-02T20:05:29.342Z,237.40
2019-02-02T20:07:58.263Z,253.83
2019-02-02T20:10:26.879Z,263.70
2019-02-02T20:12:55.506Z,255.63
2019-02-02T20:15:26.090Z,247.87
2019-02-02T20:17:54.832Z,261.83
2019-02-02T20:20:27.797Z,316.03
2019-02-02T20:22:56.955Z,310.37
2019-02-02T20:25:25.696Z,313.83
2019-02-02T20:27:54.335Z,330.17
2019-02-02T20:30:28.842Z,336.00
2019-02-02T20:32:57.643Z,332.47
2019-02-02T20:35:26.280Z,309.53
2019-02-02T20:37:54.918Z,257.60
2019-02-02T20:40:25.941Z,187.30
2019-02-02T20:42:54.881Z,209.23
2019-02-02T20:45:25.865Z,198.40
2019-02-02T20:47:54.475Z,205.80
2019-02-02T20:50:23.526Z,231.77
2019-02-02T20:52:54.915Z,259.50
2019-02-02T20:55:25.951Z,243.17
2019-02-02T20:57:55.040Z,291.57
2019-02-02T21:00:28.927Z,313.00
2019-02-02T21:02:57.723Z,298.00
2019-02-02T21:05:26.719Z,307.70
2019-02-02T21:07:55.343Z,346.67
2019-02-02T21:10:25.401Z,326.00
2019-02-02T21:12:54.703Z,329.13
2019-02-02T21:15:23.440Z,386.77
2019-02-02T21:17:52.198Z,398.90
2019-02-02T21:20:30.146Z,376.17
2019-02-02T21:22:58.809Z,361.90
2019-02-02T21:25:27.499Z,359.07
2019-02-02T21:27:56.234Z,376.70
2019-02-02T21:30:27.110Z,386.83
2019-02-02T21:32:55.785Z,351.00
2019-02-02T21:35:24.796Z,389.63
2019-02-02T21:37:56.607Z,338.37
2019-02-02T21:40:27.252Z,358.23
2019-02-02T21:43:00.376Z,354.63
2019-02-02T21:45:29.037Z,373.80
2019-02-02T21:47:57.681Z,344.57
2019-02-02T21:50:26.967Z,366.37
2019-02-02T21:52:55.808Z,363.17
2019-02-02T21:55:29.025Z,363.57
2019-02-02T21:57:57.709Z,351.93
2019-02-02T22:00:31.557Z,369.67
2019-02-02T22:03:00.237Z,365.20
2019-02-02T22:05:28.872Z,369.43
2019-02-02T22:07:57.505Z,386.43
2019-02-02T22:10:26.176Z,375.20
2019-02-02T22:12:55.191Z,391.03
2019-02-02T22:15:28.429Z,390.23
2019-02-02T22:17:57.060Z,406.43
2019-02-02T22:20:25.678Z,399.63
2019-02-02T22:22:54.302Z,388.27
2019-02-02T22:25:32.055Z,394.20
2019-02-02T22:28:00.693Z,402.07
2019-02-02T22:30:31.157Z,380.10
2019-02-02T22:33:00.008Z,382.13
2019-02-02T22:35:28.646Z,387.73
2019-02-02T22:37:57.624Z,377.03
2019-02-02T22:40:27.912Z,347.83
2019-02-02T22:42:56.853Z,341.13
2019-02-02T22:45:28.406Z,309.37
2019-02-02T22:47:57.091Z,307.80
2019-02-02T22:50:27.620Z,321.70
2019-02-02T22:52:56.355Z,331.37
2019-02-02T22:55:25.648Z,295.33
2019-02-02T22:57:54.468Z,293.17
2019-02-02T23:00:59.433Z,293.33
2019-02-02T23:03:34.153Z,285.50
2019-02-02T23:06:23.878Z,304.10
2019-02-02T23:09:16.243Z,323.27
2019-02-02T23:11:47.857Z,317.20
2019-02-02T23:14:43.734Z,317.03
2019-02-02T23:17:12.505Z,287.67
2019-02-02T23:19:41.135Z,270.43
2019-02-02T23:22:12.480Z,293.17
2019-02-02T23:24:41.050Z,267.53
2019-02-02T23:27:09.679Z,288.33
2019-02-02T23:29:38.350Z,291.83
2019-02-02T23:32:09.790Z,317.70
2019-02-02T23:34:38.477Z,290.33
2019-02-02T23:37:07.211Z,280.77
2019-02-02T23:39:40.080Z,276.37
2019-02-02T23:42:08.689Z,274.03
2019-02-02T23:44:37.384Z,274.20
2019-02-02T23:47:06.012Z,291.77
2019-02-02T23:49:34.889Z,286.17
2019-02-02T23:52:03.540Z,294.27
2019-02-02T23:54:32.112Z,300.93
2019-02-02T23:57:00.810Z,311.20
2019-02-02T23:59:29.439Z,289.43
